createdAt,value
2022-12-20T00:00:30.405Z,8.2
2022-12-20T00:01:30.513Z,8.2
2022-12-20T00:02:30.591Z,8.2
2022-12-20T00:03:30.543Z,8.2
2022-12-20T00:04:30.591Z,8.2
2022-12-20T00:05:30.606Z,8.4
2022-12-20T00:06:30.736Z,8.4
2022-12-20T00:07:30.735Z,8.3
2022-12-20T00:08:30.798Z,8.2
2022-12-20T00:09:30.834Z,8.2
2022-12-20T00:10:30.740Z,8.2
2022-12-20T00:11:30.814Z,8.1
2022-12-20T00:12:30.811Z,8.2
2022-12-20T00:13:30.838Z,8.2
2022-12-20T00:14:30.884Z,8.2
2022-12-20T00:15:30.893Z,8.1
2022-12-20T00:16:30.919Z,8.1
2022-12-20T00:17:30.997Z,8.2
2022-12-20T00:18:31.016Z,8.2
2022-12-20T00:19:31.037Z,8.1
2022-12-20T00:20:31.059Z,8.1
2022-12-20T00:21:31.079Z,8.1
2022-12-20T00:22:31.119Z,8.1
2022-12-20T00:23:31.146Z,8
2022-12-20T00:24:31.177Z,8
2022-12-20T00:25:31.231Z,8
2022-12-20T00:26:31.247Z,7.9
2022-12-20T00:27:31.302Z,7.9
2022-12-20T00:28:31.336Z,7.9
2022-12-20T00:29:31.354Z,7.9
2022-12-20T00:30:31.390Z,7.9
2022-12-20T00:31:31.550Z,7.8
2022-12-20T00:32:31.455Z,7.8
2022-12-20T00:33:31.490Z,7.8
2022-12-20T00:34:31.496Z,7.8
2022-12-20T00:35:31.533Z,7.8
2022-12-20T00:36:31.588Z,7.8
2022-12-20T00:37:31.637Z,7.7
2022-12-20T00:38:31.656Z,7.7
2022-12-20T00:39:31.694Z,7.7
2022-12-20T00:40:31.701Z,7.6
2022-12-20T00:41:31.741Z,7.7
2022-12-20T00:42:31.738Z,7.7
2022-12-20T00:43:31.802Z,7.8
2022-12-20T00:44:31.816Z,7.7
2022-12-20T00:45:31.891Z,7.8
2022-12-20T00:46:32.260Z,7.7
2022-12-20T00:47:32.043Z,7.7
2022-12-20T00:48:32.176Z,7.7
2022-12-20T00:49:32.235Z,7.7
2022-12-20T00:50:32.279Z,7.8
2022-12-20T00:51:32.327Z,7.7
2022-12-20T00:52:32.363Z,7.6
2022-12-20T00:53:32.412Z,7.7
2022-12-20T00:54:32.610Z,7.8
2022-12-20T00:55:32.539Z,7.8
2022-12-20T00:56:32.636Z,7.9
2022-12-20T00:57:32.735Z,7.9
2022-12-20T00:58:32.762Z,7.8
2022-12-20T00:59:32.793Z,7.8
2022-12-20T01:00:32.863Z,7.8
2022-12-20T01:01:33.083Z,7.8
2022-12-20T01:02:33.140Z,7.8
2022-12-20T01:03:33.161Z,7.8
2022-12-20T01:04:33.059Z,7.8
2022-12-20T01:05:33.129Z,7.8
2022-12-20T01:06:33.172Z,7.7
2022-12-20T01:07:33.213Z,7.8
2022-12-20T01:08:33.281Z,7.8
2022-12-20T01:09:33.301Z,7.8
2022-12-20T01:10:33.319Z,7.9
2022-12-20T01:11:33.369Z,7.8
2022-12-20T01:12:33.404Z,7.9
2022-12-20T01:13:33.441Z,7.8
2022-12-20T01:14:33.445Z,7.8
2022-12-20T01:15:33.456Z,7.8
2022-12-20T01:16:33.554Z,7.8
2022-12-20T01:17:33.516Z,7.8
2022-12-20T01:18:33.572Z,7.8
2022-12-20T01:19:33.614Z,7.7
2022-12-20T01:20:33.632Z,7.7
2022-12-20T01:21:33.667Z,7.7
2022-12-20T01:22:33.687Z,7.7
2022-12-20T01:23:33.729Z,7.6
2022-12-20T01:24:33.739Z,7.7
2022-12-20T01:25:33.753Z,7.6
2022-12-20T01:26:33.828Z,7.7
2022-12-20T01:27:33.842Z,7.6
2022-12-20T01:28:34.065Z,7.6
2022-12-20T01:29:35.923Z,7.6
2022-12-20T01:30:34.992Z,7.5
2022-12-20T01:31:34.094Z,7.5
2022-12-20T01:32:34.030Z,7.5
2022-12-20T01:33:34.083Z,7.5
2022-12-20T01:34:34.085Z,7.5
2022-12-20T01:35:34.112Z,7.6
2022-12-20T01:36:34.141Z,7.6
2022-12-20T01:37:34.206Z,7.5
2022-12-20T01:38:34.231Z,7.6
2022-12-20T01:39:34.251Z,7.5
2022-12-20T01:40:34.307Z,7.6
2022-12-20T01:41:34.329Z,7.6
2022-12-20T01:42:34.345Z,7.6
2022-12-20T01:43:34.403Z,7.7
2022-12-20T01:44:34.403Z,7.7
2022-12-20T01:45:34.553Z,7.6
2022-12-20T01:46:34.556Z,7.6
2022-12-20T01:47:34.509Z,7.6
2022-12-20T01:48:34.545Z,7.6
2022-12-20T01:49:34.554Z,7.6
2022-12-20T01:50:34.592Z,7.6
2022-12-20T01:51:34.621Z,7.7
2022-12-20T01:52:34.662Z,7.6
2022-12-20T01:53:34.731Z,7.6
2022-12-20T01:54:34.743Z,7.6
2022-12-20T01:55:34.785Z,7.6
2022-12-20T01:56:34.804Z,7.6
2022-12-20T01:57:34.826Z,7.6
2022-12-20T01:58:34.916Z,7.7
2022-12-20T01:59:34.899Z,7.7
2022-12-20T02:00:35.002Z,7.7
2022-12-20T02:01:35.193Z,7.6
2022-12-20T02:02:35.286Z,7.7
2022-12-20T02:03:35.244Z,7.8
2022-12-20T02:04:35.236Z,7.7
2022-12-20T02:05:35.324Z,7.7
2022-12-20T02:06:35.375Z,7.8
2022-12-20T02:07:35.448Z,7.9
2022-12-20T02:08:35.573Z,7.8
2022-12-20T02:09:35.636Z,7.9
2022-12-20T02:10:35.673Z,7.8
2022-12-20T02:11:35.732Z,7.7
2022-12-20T02:12:35.792Z,7.8
2022-12-20T02:13:35.848Z,7.8
2022-12-20T02:14:35.895Z,7.8
2022-12-20T02:15:37.997Z,7.8
2022-12-20T02:16:36.221Z,7.8
2022-12-20T02:17:36.167Z,7.8
2022-12-20T02:18:36.154Z,7.8
2022-12-20T02:19:36.185Z,7.8
2022-12-20T02:20:36.205Z,7.8
2022-12-20T02:21:36.245Z,7.8
2022-12-20T02:22:36.272Z,7.9
2022-12-20T02:23:36.333Z,7.9
2022-12-20T02:24:36.350Z,7.8
2022-12-20T02:25:36.384Z,7.8
2022-12-20T02:26:36.422Z,7.8
2022-12-20T02:27:36.457Z,7.8
2022-12-20T02:28:36.506Z,7.9
2022-12-20T02:29:36.526Z,7.9
2022-12-20T02:30:36.543Z,7.8
2022-12-20T02:31:36.740Z,7.9
2022-12-20T02:32:36.715Z,7.9
2022-12-20T02:33:36.709Z,7.9
2022-12-20T02:34:36.712Z,7.9
2022-12-20T02:35:36.737Z,7.9
2022-12-20T02:36:36.790Z,7.9
2022-12-20T02:37:36.818Z,7.9
2022-12-20T02:38:36.832Z,7.9
2022-12-20T02:39:36.877Z,8
2022-12-20T02:40:36.914Z,7.9
2022-12-20T02:41:36.959Z,7.9
2022-12-20T02:42:36.996Z,7.9
2022-12-20T02:43:36.999Z,7.9
2022-12-20T02:44:37.015Z,7.9
2022-12-20T02:45:37.110Z,7.8
2022-12-20T02:46:37.119Z,7.8
2022-12-20T02:47:37.145Z,7.7
2022-12-20T02:48:37.201Z,7.7
2022-12-20T02:49:37.231Z,7.8
2022-12-20T02:50:37.242Z,7.7
2022-12-20T02:51:37.265Z,7.7
2022-12-20T02:52:37.304Z,7.7
2022-12-20T02:53:37.493Z,7.7
2022-12-20T02:54:37.361Z,7.8
2022-12-20T02:55:37.380Z,7.7
2022-12-20T02:56:37.424Z,7.7
2022-12-20T02:57:37.431Z,7.8
2022-12-20T02:58:37.650Z,7.7
2022-12-20T02:59:37.522Z,7.7
2022-12-20T03:00:37.569Z,7.7
2022-12-20T03:01:37.702Z,7.6
2022-12-20T03:02:37.930Z,7.7
2022-12-20T03:03:37.812Z,7.7
2022-12-20T03:04:37.702Z,7.7
2022-12-20T03:05:37.748Z,7.6
2022-12-20T03:06:37.775Z,7.6
2022-12-20T03:07:37.881Z,7.6
2022-12-20T03:08:37.865Z,7.6
2022-12-20T03:09:37.862Z,7.6
2022-12-20T03:10:37.869Z,7.7
2022-12-20T03:11:37.920Z,7.8
2022-12-20T03:12:37.973Z,7.8
2022-12-20T03:13:38.067Z,7.8
2022-12-20T03:14:38.148Z,7.8
2022-12-20T03:15:38.193Z,7.8
2022-12-20T03:16:38.326Z,7.8
2022-12-20T03:17:38.329Z,7.7
2022-12-20T03:18:38.415Z,7.8
2022-12-20T03:19:38.476Z,7.8
2022-12-20T03:20:38.523Z,7.8
2022-12-20T03:21:38.836Z,7.7
2022-12-20T03:22:38.651Z,7.7
2022-12-20T03:23:38.756Z,7.7
2022-12-20T03:24:38.912Z,7.7
2022-12-20T03:25:38.836Z,7.7
2022-12-20T03:26:38.923Z,7.6
2022-12-20T03:27:38.962Z,7.6
2022-12-20T03:29:38.453Z,7.7
2022-12-20T03:29:39.103Z,7.7
2022-12-20T03:30:39.283Z,7.7
2022-12-20T03:31:39.250Z,7.6
2022-12-20T03:32:39.306Z,7.7
2022-12-20T03:33:39.278Z,7.7
2022-12-20T03:34:39.338Z,7.7
2022-12-20T03:35:39.354Z,7.7
2022-12-20T03:36:39.394Z,7.6
2022-12-20T03:37:39.487Z,7.6
2022-12-20T03:38:39.474Z,7.6
2022-12-20T03:39:39.511Z,7.6
2022-12-20T03:40:39.520Z,7.6
2022-12-20T03:41:39.685Z,7.6
2022-12-20T03:42:39.735Z,7.6
2022-12-20T03:43:39.806Z,7.6
2022-12-20T03:44:39.781Z,7.6
2022-12-20T03:45:39.690Z,7.8
2022-12-20T03:46:39.810Z,7.8
2022-12-20T03:47:39.760Z,7.8
2022-12-20T03:48:39.778Z,7.8
2022-12-20T03:49:39.829Z,7.8
2022-12-20T03:50:39.872Z,7.8
2022-12-20T03:51:39.888Z,7.7
2022-12-20T03:52:39.937Z,7.7
2022-12-20T03:53:40.021Z,7.7
2022-12-20T03:54:40.046Z,7.7
2022-12-20T03:55:43.023Z,7.6
2022-12-20T03:56:40.050Z,7.6
2022-12-20T03:57:40.108Z,7.7
2022-12-20T03:58:40.097Z,7.7
2022-12-20T03:59:42.707Z,7.7
2022-12-20T04:00:40.183Z,7.6
2022-12-20T04:01:42.348Z,7.6
2022-12-20T04:02:41.941Z,7.6
2022-12-20T04:03:40.451Z,7.6
2022-12-20T04:04:40.324Z,7.6
2022-12-20T04:05:42.438Z,7.6
2022-12-20T04:06:40.394Z,7.6
2022-12-20T04:07:46.022Z,7.7
2022-12-20T04:08:43.977Z,7.6
2022-12-20T04:09:46.569Z,7.7
2022-12-20T04:10:40.516Z,7.7
2022-12-20T04:11:43.930Z,7.6
2022-12-20T04:12:40.603Z,7.7
2022-12-20T04:13:40.608Z,7.7
2022-12-20T04:14:42.369Z,7.7
2022-12-20T04:15:40.706Z,7.7
2022-12-20T04:16:40.792Z,7.7
2022-12-20T04:17:40.961Z,7.7
2022-12-20T04:18:40.742Z,7.6
2022-12-20T04:19:40.790Z,7.6
2022-12-20T04:20:42.925Z,7.6
2022-12-20T04:21:40.898Z,7.6
2022-12-20T04:22:40.881Z,7.6
2022-12-20T04:24:03.639Z,7.6
2022-12-20T04:24:41.003Z,7.6
2022-12-20T04:25:41.078Z,7.6
2022-12-20T04:26:42.378Z,7.6
2022-12-20T04:27:41.249Z,7.6
2022-12-20T04:28:41.296Z,7.6
2022-12-20T04:29:41.344Z,7.6
2022-12-20T04:31:34.656Z,7.6
2022-12-20T04:31:41.655Z,7.6
2022-12-20T04:32:41.618Z,7.6
2022-12-20T04:33:41.673Z,7.6
2022-12-20T04:34:41.694Z,7.6
2022-12-20T04:35:41.792Z,7.6
2022-12-20T04:36:41.784Z,7.6
2022-12-20T04:37:42.020Z,7.6
2022-12-20T04:38:41.960Z,7.5
2022-12-20T04:39:43.046Z,7.6
2022-12-20T04:40:42.647Z,7.5
2022-12-20T04:41:47.581Z,7.5
2022-12-20T04:42:42.448Z,7.5
2022-12-20T04:43:42.373Z,7.4
2022-12-20T04:44:43.065Z,7.4
2022-12-20T04:45:42.798Z,7.5
2022-12-20T04:46:42.952Z,7.6
2022-12-20T04:47:42.792Z,7.6
2022-12-20T04:48:59.173Z,7.6
2022-12-20T04:49:42.962Z,7.6
2022-12-20T04:50:42.768Z,7.5
2022-12-20T04:51:42.892Z,7.5
2022-12-20T04:52:47.550Z,7.5
2022-12-20T04:53:46.839Z,7.4
2022-12-20T04:54:42.990Z,7.4
2022-12-20T04:55:44.067Z,7.5
2022-12-20T04:56:43.076Z,7.5
2022-12-20T04:57:43.349Z,7.6
2022-12-20T04:58:43.289Z,7.6
2022-12-20T04:59:43.370Z,7.6
2022-12-20T05:00:43.237Z,7.5
2022-12-20T05:02:07.857Z,7.6
2022-12-20T05:02:43.561Z,7.6
2022-12-20T05:03:43.330Z,7.6
2022-12-20T05:04:43.359Z,7.6
2022-12-20T05:05:44.106Z,7.6
2022-12-20T05:06:43.441Z,7.6
2022-12-20T05:07:43.461Z,7.6
2022-12-20T05:08:43.476Z,7.6
2022-12-20T05:09:43.538Z,7.6
2022-12-20T05:10:43.557Z,7.6
2022-12-20T05:11:43.849Z,7.6
2022-12-20T05:12:48.637Z,7.6
2022-12-20T05:13:43.675Z,7.6
2022-12-20T05:14:43.690Z,7.7
2022-12-20T05:15:43.803Z,7.6
2022-12-20T05:16:43.778Z,7.6
2022-12-20T05:17:43.815Z,7.6
2022-12-20T05:18:48.763Z,7.6
2022-12-20T05:19:43.843Z,7.6
2022-12-20T05:20:43.894Z,7.6
2022-12-20T05:21:43.912Z,7.6
2022-12-20T05:22:43.959Z,7.6
2022-12-20T05:23:43.981Z,7.6
2022-12-20T05:24:44.048Z,7.6
2022-12-20T05:25:44.089Z,7.6
2022-12-20T05:26:44.089Z,7.6
2022-12-20T05:27:44.170Z,7.6
2022-12-20T05:28:44.192Z,7.5
2022-12-20T05:29:44.206Z,7.6
2022-12-20T05:30:45.304Z,7.7
2022-12-20T05:31:44.326Z,7.7
2022-12-20T05:32:44.315Z,7.6
2022-12-20T05:33:44.352Z,7.6
2022-12-20T05:34:44.367Z,7.5
2022-12-20T05:35:44.398Z,7.5
2022-12-20T05:36:44.486Z,7.6
2022-12-20T05:37:44.607Z,7.6
2022-12-20T05:38:44.621Z,7.6
2022-12-20T05:39:44.677Z,7.6
2022-12-20T05:40:44.825Z,7.6
2022-12-20T05:41:44.846Z,7.6
2022-12-20T05:42:44.979Z,7.6
2022-12-20T05:43:45.062Z,7.6
2022-12-20T05:44:45.058Z,7.6
2022-12-20T05:45:45.128Z,7.6
2022-12-20T05:46:45.742Z,7.6
2022-12-20T05:47:45.467Z,7.6
2022-12-20T05:48:50.445Z,7.6
2022-12-20T05:49:45.567Z,7.6
2022-12-20T05:50:50.425Z,7.5
2022-12-20T05:51:45.712Z,7.5
2022-12-20T05:52:45.735Z,7.5
2022-12-20T05:53:46.799Z,7.5
2022-12-20T05:54:45.999Z,7.4
2022-12-20T05:55:45.990Z,7.3
2022-12-20T05:56:45.842Z,7.4
2022-12-20T05:57:46.914Z,7.5
2022-12-20T05:58:46.021Z,7.5
2022-12-20T05:59:46.240Z,7.5
2022-12-20T06:00:53.058Z,7.5
2022-12-20T06:01:51.076Z,7.5
2022-12-20T06:02:51.089Z,7.4
2022-12-20T06:03:49.371Z,7.4
2022-12-20T06:04:46.105Z,7.5
2022-12-20T06:05:51.068Z,7.5
2022-12-20T06:06:46.114Z,7.5
2022-12-20T06:07:51.041Z,7.5
2022-12-20T06:08:46.155Z,7.4
2022-12-20T06:09:46.189Z,7.5
2022-12-20T06:10:51.910Z,7.5
2022-12-20T06:11:46.205Z,7.5
2022-12-20T06:12:46.231Z,7.6
2022-12-20T06:13:46.251Z,7.6
2022-12-20T06:14:46.284Z,7.6
2022-12-20T06:15:46.346Z,7.6
2022-12-20T06:16:46.436Z,7.5
2022-12-20T06:17:46.392Z,7.6
2022-12-20T06:18:46.421Z,7.6
2022-12-20T06:19:46.449Z,7.5
2022-12-20T06:20:46.508Z,7.5
2022-12-20T06:21:46.520Z,7.5
2022-12-20T06:22:46.570Z,7.6
2022-12-20T06:23:46.617Z,7.6
2022-12-20T06:24:48.710Z,7.6
2022-12-20T06:25:46.658Z,7.5
2022-12-20T06:26:46.672Z,7.5
2022-12-20T06:27:46.756Z,7.5
2022-12-20T06:28:46.764Z,7.6
2022-12-20T06:29:46.767Z,7.6
2022-12-20T06:30:46.791Z,7.6
2022-12-20T06:31:46.911Z,7.6
2022-12-20T06:32:46.859Z,7.6
2022-12-20T06:33:46.913Z,7.6
2022-12-20T06:34:46.907Z,7.6
2022-12-20T06:35:46.962Z,7.6
2022-12-20T06:36:47.005Z,7.6
2022-12-20T06:37:47.046Z,7.7
2022-12-20T06:38:47.024Z,7.6
2022-12-20T06:39:47.071Z,7.6
2022-12-20T06:40:47.103Z,7.6
2022-12-20T06:41:47.118Z,7.6
2022-12-20T06:42:47.153Z,7.6
2022-12-20T06:43:47.170Z,7.7
2022-12-20T06:44:47.234Z,7.6
2022-12-20T06:45:47.272Z,7.6
2022-12-20T06:46:47.292Z,7.7
2022-12-20T06:47:47.371Z,7.7
2022-12-20T06:48:47.447Z,7.7
2022-12-20T06:49:47.503Z,7.7
2022-12-20T06:50:52.179Z,7.7
2022-12-20T06:51:47.642Z,7.6
2022-12-20T06:52:47.732Z,7.6
2022-12-20T06:53:47.771Z,7.7
2022-12-20T06:54:47.863Z,7.7
2022-12-20T06:55:48.709Z,7.7
2022-12-20T06:56:47.992Z,7.7
2022-12-20T06:57:48.068Z,7.7
2022-12-20T06:58:53.162Z,7.7
2022-12-20T06:59:48.168Z,7.7
2022-12-20T07:00:48.299Z,7.7
2022-12-20T07:01:48.821Z,7.7
2022-12-20T07:02:48.391Z,7.6
2022-12-20T07:03:48.687Z,7.7
2022-12-20T07:04:48.406Z,7.7
2022-12-20T07:05:48.478Z,7.6
2022-12-20T07:06:53.474Z,7.6
2022-12-20T07:07:48.525Z,7.5
2022-12-20T07:08:48.535Z,7.6
2022-12-20T07:09:48.601Z,7.6
2022-12-20T07:10:48.608Z,7.6
2022-12-20T07:11:48.646Z,7.6
2022-12-20T07:12:48.837Z,7.6
2022-12-20T07:13:48.762Z,7.6
2022-12-20T07:14:48.770Z,7.6
2022-12-20T07:15:48.798Z,7.6
2022-12-20T07:16:48.852Z,7.6
2022-12-20T07:17:51.438Z,7.5
2022-12-20T07:18:49.072Z,7.6
2022-12-20T07:19:51.479Z,7.6
2022-12-20T07:20:49.003Z,7.6
2022-12-20T07:21:49.029Z,7.6
2022-12-20T07:22:49.065Z,7.6
2022-12-20T07:23:49.075Z,7.6
2022-12-20T07:24:49.885Z,7.6
2022-12-20T07:25:50.348Z,7.6
2022-12-20T07:26:49.159Z,7.5
2022-12-20T07:27:49.261Z,7.5
2022-12-20T07:28:49.273Z,7.5
2022-12-20T07:29:49.356Z,7.5
2022-12-20T07:30:49.303Z,7.5
2022-12-20T07:31:49.404Z,7.5
2022-12-20T07:32:49.401Z,7.5
2022-12-20T07:33:50.772Z,7.5
2022-12-20T07:34:51.285Z,7.6
2022-12-20T07:35:54.564Z,7.6
2022-12-20T07:36:52.651Z,7.6
2022-12-20T07:37:51.382Z,7.6
2022-12-20T07:38:52.104Z,7.5
2022-12-20T07:39:57.574Z,7.5
2022-12-20T07:40:51.495Z,7.5
2022-12-20T07:41:52.571Z,7.5
2022-12-20T07:42:51.604Z,7.5
2022-12-20T07:43:51.598Z,7.5
2022-12-20T07:44:51.854Z,7.5
2022-12-20T07:45:51.905Z,7.5
2022-12-20T07:46:51.694Z,7.5
2022-12-20T07:47:51.753Z,7.5
2022-12-20T07:48:51.818Z,7.5
2022-12-20T07:49:51.800Z,7.5
2022-12-20T07:50:52.186Z,7.5
2022-12-20T07:51:51.915Z,7.5
2022-12-20T07:52:52.070Z,7.5
2022-12-20T07:53:51.968Z,7.5
2022-12-20T07:54:52.041Z,7.5
2022-12-20T07:55:52.010Z,7.5
2022-12-20T07:57:12.602Z,7.6
2022-12-20T07:57:52.088Z,7.6
2022-12-20T07:58:52.204Z,7.6
2022-12-20T07:59:52.355Z,7.6
2022-12-20T08:00:52.621Z,7.6
2022-12-20T08:01:52.538Z,7.6
2022-12-20T08:02:52.659Z,7.6
2022-12-20T08:03:52.609Z,7.6
2022-12-20T08:04:52.592Z,7.5
2022-12-20T08:05:52.591Z,7.5
2022-12-20T08:06:52.638Z,7.5
2022-12-20T08:07:58.594Z,7.5
2022-12-20T08:08:52.876Z,7.5
2022-12-20T08:09:52.856Z,7.6
2022-12-20T08:10:52.942Z,7.6
2022-12-20T08:11:53.019Z,7.6
2022-12-20T08:12:53.091Z,7.6
2022-12-20T08:13:57.676Z,7.6
2022-12-20T08:14:53.238Z,7.6
2022-12-20T08:15:53.266Z,7.6
2022-12-20T08:16:54.464Z,7.6
2022-12-20T08:17:54.444Z,7.6
2022-12-20T08:18:53.408Z,7.7
2022-12-20T08:19:53.451Z,7.7
2022-12-20T08:20:53.440Z,7.6
2022-12-20T08:21:53.493Z,7.6
2022-12-20T08:22:53.514Z,7.6
2022-12-20T08:23:53.651Z,7.6
2022-12-20T08:24:53.598Z,7.6
2022-12-20T08:25:53.619Z,7.6
2022-12-20T08:26:53.667Z,7.6
2022-12-20T08:27:53.699Z,7.6
2022-12-20T08:28:53.732Z,7.6
2022-12-20T08:29:53.775Z,7.7
2022-12-20T08:30:53.849Z,7.6
2022-12-20T08:31:53.838Z,7.6
2022-12-20T08:32:53.876Z,7.7
2022-12-20T08:33:53.942Z,7.7
2022-12-20T08:34:53.934Z,7.6
2022-12-20T08:35:54.105Z,7.7
2022-12-20T08:36:53.964Z,7.7
2022-12-20T08:37:54.019Z,7.8
2022-12-20T08:38:54.035Z,7.8
2022-12-20T08:39:54.155Z,7.8
2022-12-20T08:40:54.118Z,7.8
2022-12-20T08:41:54.165Z,7.8
2022-12-20T08:42:54.191Z,7.8
2022-12-20T08:45:13.977Z,7.8
2022-12-20T08:45:54.301Z,7.8
2022-12-20T08:46:54.380Z,7.8
2022-12-20T08:47:54.411Z,7.9
2022-12-20T08:48:55.608Z,7.8
2022-12-20T08:49:54.446Z,7.7
2022-12-20T08:50:54.499Z,7.8
2022-12-20T08:51:54.476Z,7.9
2022-12-20T08:52:55.219Z,7.9
2022-12-20T08:53:54.527Z,7.9
2022-12-20T08:54:55.917Z,7.8
2022-12-20T08:56:03.466Z,7.9
2022-12-20T08:56:55.137Z,7.9
2022-12-20T08:57:54.635Z,7.9
2022-12-20T08:58:54.746Z,7.9
2022-12-20T08:59:54.744Z,7.8
2022-12-20T09:00:55.665Z,7.9
2022-12-20T09:01:55.039Z,7.9
2022-12-20T09:02:55.129Z,7.9
2022-12-20T09:03:54.995Z,7.9
2022-12-20T09:04:57.435Z,7.9
2022-12-20T09:05:54.924Z,7.8
2022-12-20T09:06:55.619Z,7.9
2022-12-20T09:07:55.027Z,7.9
2022-12-20T09:08:55.047Z,8
2022-12-20T09:09:55.091Z,8
2022-12-20T09:10:55.158Z,8
2022-12-20T09:11:55.212Z,8
2022-12-20T09:12:55.307Z,8
2022-12-20T09:13:55.394Z,8
2022-12-20T09:14:56.949Z,8.1
2022-12-20T09:15:55.570Z,8.1
2022-12-20T09:16:55.615Z,8.1
2022-12-20T09:17:55.701Z,8.1
2022-12-20T09:19:00.881Z,8.1
2022-12-20T09:19:55.822Z,8
2022-12-20T09:20:55.900Z,8
2022-12-20T09:21:55.988Z,8.1
2022-12-20T09:22:56.028Z,8
2022-12-20T09:23:56.182Z,8.1
2022-12-20T09:24:56.767Z,8.1
2022-12-20T09:25:56.177Z,8.1
2022-12-20T09:26:56.345Z,8.1
2022-12-20T09:27:56.365Z,8.1
2022-12-20T09:28:56.416Z,8.1
2022-12-20T09:29:56.655Z,8.1
2022-12-20T09:30:56.493Z,8.1
2022-12-20T09:31:56.528Z,8.1
2022-12-20T09:33:07.405Z,8.1
2022-12-20T09:33:56.637Z,8.1
2022-12-20T09:34:58.156Z,8.1
2022-12-20T09:35:56.695Z,8
2022-12-20T09:36:56.735Z,8
2022-12-20T09:37:56.722Z,8
2022-12-20T09:38:56.756Z,8
2022-12-20T09:39:56.773Z,8
2022-12-20T09:40:56.820Z,8
2022-12-20T09:41:56.852Z,8.1
2022-12-20T09:42:56.923Z,8.1
2022-12-20T09:43:56.901Z,8.1
2022-12-20T09:44:58.742Z,8.1
2022-12-20T09:45:56.961Z,8.1
2022-12-20T09:46:57.080Z,8.1
2022-12-20T09:47:56.968Z,8.1
2022-12-20T09:48:57.063Z,8.1
2022-12-20T09:49:57.100Z,8.1
2022-12-20T09:50:57.077Z,8.1
2022-12-20T09:51:57.146Z,8.1
2022-12-20T09:52:57.159Z,8.1
2022-12-20T09:53:57.206Z,8.1
2022-12-20T09:54:59.170Z,8.1
2022-12-20T09:55:57.283Z,7.9
2022-12-20T09:56:59.475Z,8
2022-12-20T09:57:57.634Z,8
2022-12-20T09:59:02.520Z,8
2022-12-20T09:59:58.220Z,8
2022-12-20T10:01:00.198Z,8.1
2022-12-20T10:02:07.893Z,8.1
2022-12-20T10:03:06.329Z,8.1
2022-12-20T10:03:57.735Z,8.1
2022-12-20T10:04:57.608Z,8.2
2022-12-20T10:05:57.732Z,8.1
2022-12-20T10:06:57.811Z,8.1
2022-12-20T10:07:57.963Z,8.1
2022-12-20T10:08:57.909Z,8.1
2022-12-20T10:09:57.724Z,8.1
2022-12-20T10:10:57.793Z,8.1
2022-12-20T10:12:02.813Z,8.2
2022-12-20T10:12:57.897Z,8.2
2022-12-20T10:13:57.809Z,8.1
2022-12-20T10:15:02.375Z,8.1
2022-12-20T10:15:57.941Z,8.1
2022-12-20T10:16:58.002Z,8.1
2022-12-20T10:17:58.289Z,8.1
2022-12-20T10:18:58.040Z,8.1
2022-12-20T10:19:58.184Z,8
2022-12-20T10:20:58.876Z,8.1
2022-12-20T10:21:58.141Z,8.1
2022-12-20T10:22:58.274Z,8.1
2022-12-20T10:23:58.416Z,8.1
2022-12-20T10:24:59.341Z,8.1
2022-12-20T10:25:58.420Z,8.1
2022-12-20T10:27:02.907Z,8.1
2022-12-20T10:27:58.611Z,8.1
2022-12-20T10:28:59.737Z,8.1
2022-12-20T10:29:58.718Z,8.1
2022-12-20T10:30:59.357Z,8.2
2022-12-20T10:31:58.864Z,8.2
2022-12-20T10:33:00.223Z,8.2
2022-12-20T10:33:59.001Z,8.2
2022-12-20T10:34:59.958Z,8.2
2022-12-20T10:35:59.890Z,8.2
2022-12-20T10:36:59.905Z,8.3
2022-12-20T10:38:07.379Z,8.3
2022-12-20T10:39:01.836Z,8.3
2022-12-20T10:40:03.576Z,8.3
2022-12-20T10:41:25.318Z,8.3
2022-12-20T10:42:01.254Z,8.3
2022-12-20T10:43:00.204Z,8.3
2022-12-20T10:43:59.471Z,8.3
2022-12-20T10:45:01.774Z,8.3
2022-12-20T10:45:59.513Z,8.4
2022-12-20T10:47:02.085Z,8.4
2022-12-20T10:48:05.872Z,8.3
2022-12-20T10:49:00.275Z,8.4
2022-12-20T10:49:59.626Z,8.3
2022-12-20T10:51:03.342Z,8.3
2022-12-20T10:51:59.732Z,8.3
2022-12-20T10:53:01.638Z,8.3
2022-12-20T10:54:02.175Z,8.3
2022-12-20T10:55:00.710Z,8.3
2022-12-20T10:55:59.815Z,8.3
2022-12-20T10:57:01.980Z,8.4
2022-12-20T10:57:59.879Z,8.3
2022-12-20T10:59:01.717Z,8.3
2022-12-20T11:00:00.584Z,8.3
2022-12-20T11:01:01.752Z,8.4
2022-12-20T11:02:00.163Z,8.3
2022-12-20T11:03:02.272Z,8.4
2022-12-20T11:04:00.167Z,8.3
2022-12-20T11:05:00.640Z,8.4
2022-12-20T11:06:01.136Z,8.3
2022-12-20T11:07:00.757Z,8.3
2022-12-20T11:09:04.228Z,8.3
2022-12-20T11:10:00.250Z,8.4
2022-12-20T11:11:01.041Z,8.4
2022-12-20T11:12:03.730Z,8.4
2022-12-20T11:13:05.346Z,8.4
2022-12-20T11:14:00.386Z,8.4
2022-12-20T11:15:01.790Z,8.4
2022-12-20T11:16:00.499Z,8.4
2022-12-20T11:17:03.047Z,8.4
2022-12-20T11:18:02.455Z,8.4
2022-12-20T11:19:00.924Z,8.4
2022-12-20T11:20:00.532Z,8.4
2022-12-20T11:21:02.297Z,8.4
2022-12-20T11:22:00.610Z,8.4
2022-12-20T11:23:02.475Z,8.4
2022-12-20T11:24:03.013Z,8.5
2022-12-20T11:25:01.434Z,8.5
2022-12-20T11:26:00.724Z,8.5
2022-12-20T11:27:03.178Z,8.6
2022-12-20T11:28:00.828Z,8.5
2022-12-20T11:29:01.955Z,8.5
2022-12-20T11:30:02.671Z,8.6
2022-12-20T11:31:01.685Z,8.6
2022-12-20T11:32:01.029Z,8.6
2022-12-20T11:33:02.938Z,8.6
2022-12-20T11:34:01.035Z,8.6
2022-12-20T11:35:01.832Z,8.6
2022-12-20T11:36:05.157Z,8.6
2022-12-20T11:37:04.546Z,8.6
2022-12-20T11:38:07.394Z,8.6
2022-12-20T11:39:05.118Z,8.6
2022-12-20T11:40:01.416Z,8.6
2022-12-20T11:41:03.596Z,8.6
2022-12-20T11:42:01.811Z,8.6
2022-12-20T11:43:02.398Z,8.7
2022-12-20T11:44:24.308Z,8.7
2022-12-20T11:45:09.139Z,8.6
2022-12-20T11:46:01.814Z,8.6
2022-12-20T11:47:01.912Z,8.7
2022-12-20T11:48:04.576Z,8.7
2022-12-20T11:49:02.430Z,8.7
2022-12-20T11:50:01.968Z,8.8
2022-12-20T11:51:03.402Z,8.8
2022-12-20T11:52:02.081Z,8.8
2022-12-20T11:53:02.094Z,8.8
2022-12-20T11:54:02.715Z,8.8
2022-12-20T11:55:26.845Z,8.8
2022-12-20T11:56:27.384Z,8.8
2022-12-20T11:57:11.439Z,8.8
2022-12-20T11:58:20.501Z,8.8
2022-12-20T11:59:02.321Z,8.8
2022-12-20T12:00:23.363Z,8.7
2022-12-20T12:01:13.230Z,8.8
2022-12-20T12:02:03.772Z,8.8
2022-12-20T12:03:05.493Z,8.8
2022-12-20T12:04:02.541Z,8.8
2022-12-20T12:05:08.020Z,8.8
2022-12-20T12:06:03.303Z,8.7
2022-12-20T12:07:10.442Z,8.7
2022-12-20T12:08:18.275Z,8.7
2022-12-20T12:09:09.929Z,8.7
2022-12-20T12:10:03.720Z,8.7
2022-12-20T12:11:04.097Z,8.6
2022-12-20T12:12:07.066Z,8.6
2022-12-20T12:13:03.187Z,8.6
2022-12-20T12:14:02.886Z,8.6
2022-12-20T12:15:08.781Z,8.6
2022-12-20T12:16:02.966Z,8.7
2022-12-20T12:17:03.733Z,8.8
2022-12-20T12:18:05.063Z,8.7
2022-12-20T12:19:04.841Z,8.7
2022-12-20T12:20:03.047Z,8.8
2022-12-20T12:21:17.870Z,8.8
2022-12-20T12:22:03.366Z,8.9
2022-12-20T12:23:22.647Z,8.8
2022-12-20T12:24:03.296Z,8.9
2022-12-20T12:25:04.668Z,8.9
2022-12-20T12:26:04.052Z,8.9
2022-12-20T12:27:16.190Z,8.9
2022-12-20T12:28:03.369Z,8.9
2022-12-20T12:29:06.282Z,8.9
2022-12-20T12:30:22.803Z,8.9
2022-12-20T12:31:05.904Z,8.9
2022-12-20T12:32:03.581Z,9
2022-12-20T12:33:07.652Z,9
2022-12-20T12:34:22.290Z,9
2022-12-20T12:35:07.251Z,9
2022-12-20T12:36:06.176Z,9
2022-12-20T12:37:13.654Z,9
2022-12-20T12:38:06.256Z,9
2022-12-20T12:39:11.583Z,9
2022-12-20T12:40:06.438Z,9
2022-12-20T12:41:06.623Z,9.1
2022-12-20T12:42:06.474Z,9.1
2022-12-20T12:43:06.456Z,9
2022-12-20T12:44:06.486Z,9.1
2022-12-20T12:45:12.260Z,9.1
2022-12-20T12:46:11.016Z,9.2
2022-12-20T12:47:06.721Z,9.1
2022-12-20T12:48:06.765Z,9.2
2022-12-20T12:49:07.873Z,9.2
2022-12-20T12:50:06.903Z,9.2
2022-12-20T12:51:20.101Z,9.1
2022-12-20T12:52:07.037Z,9.1
2022-12-20T12:53:11.786Z,9.1
2022-12-20T12:54:09.381Z,9.2
2022-12-20T12:55:07.825Z,9.1
2022-12-20T12:56:19.569Z,9.2
2022-12-20T12:57:12.433Z,9.3
2022-12-20T12:58:38.181Z,9.2
2022-12-20T12:59:07.389Z,9.2
2022-12-20T13:00:07.619Z,9.2
2022-12-20T13:01:08.266Z,9.1
2022-12-20T13:02:07.680Z,9.1
2022-12-20T13:03:07.711Z,9.1
2022-12-20T13:04:07.560Z,9.2
2022-12-20T13:05:12.697Z,9.3
2022-12-20T13:06:07.577Z,9.2
2022-12-20T13:07:07.679Z,9.2
2022-12-20T13:08:07.688Z,9.1
2022-12-20T13:09:07.728Z,9.2
2022-12-20T13:10:07.733Z,9.3
2022-12-20T13:11:07.770Z,9.3
2022-12-20T13:12:11.669Z,9.3
2022-12-20T13:13:07.865Z,9.3
2022-12-20T13:14:07.862Z,9.3
2022-12-20T13:15:07.886Z,9.3
2022-12-20T13:16:08.140Z,9.3
2022-12-20T13:17:12.994Z,9.3
2022-12-20T13:18:26.863Z,9.7
2022-12-20T13:19:08.469Z,10.1
2022-12-20T13:20:13.214Z,10
2022-12-20T13:21:08.122Z,10.1
2022-12-20T13:22:08.190Z,10.5
2022-12-20T13:23:08.191Z,10
2022-12-20T13:24:08.204Z,9.7
2022-12-20T13:25:10.830Z,9.5
2022-12-20T13:26:08.332Z,9.4
2022-12-20T13:27:08.333Z,9.4
2022-12-20T13:28:11.392Z,9.3
2022-12-20T13:29:08.401Z,9.3
2022-12-20T13:30:08.461Z,9.3
2022-12-20T13:31:09.527Z,9.3
2022-12-20T13:32:09.305Z,9.2
2022-12-20T13:33:08.581Z,9.3
2022-12-20T13:34:08.566Z,9.3
2022-12-20T13:35:10.881Z,9.3
2022-12-20T13:36:08.654Z,9.3
2022-12-20T13:37:08.700Z,9.3
2022-12-20T13:38:08.745Z,9.3
2022-12-20T13:39:08.744Z,9.2
2022-12-20T13:40:08.757Z,9.1
2022-12-20T13:41:08.793Z,9
2022-12-20T13:42:08.818Z,9
2022-12-20T13:43:08.919Z,9.1
2022-12-20T13:44:08.915Z,9.1
2022-12-20T13:45:08.968Z,9.1
2022-12-20T13:46:09.031Z,9.1
2022-12-20T13:47:08.994Z,9.1
2022-12-20T13:48:11.562Z,9.1
2022-12-20T13:49:09.325Z,9.1
2022-12-20T13:50:09.263Z,9.1
2022-12-20T13:51:09.148Z,9.1